Warthen, Georgia
Current Conditions -  °F | °C
As of 12:35 AM on Thursday 27 Nov 2014 (Local Time) from KOKZ Reporting Station
Scattered Clouds Scattered Clouds  
Wind Chill: 41°   Ceiling: Unl
Heat Index: 45°   Visibility: 10mi
Dew Point: 32°   Wind: 8mph
Humidity: 60%   Direction: 220°SW
Pressure: 30.11"   Gusts: NA
Location:  33.1°N, 82.8°W
Report Text: KOKZ 270535Z AUTO 22007KT 10SM SCT080 SCT090 07/00 A3011 RMK AO2 T00730001
Loading
Personal Weather Stations






























Interactive Weather Map New forecast layout! Learn more

10-Day Weather Forecast

Advertisements
Track Severe Weather on mobile